createdAt,value
2023-03-17T00:00:47.735Z,1.72
2023-03-17T00:03:29.953Z,1.57
2023-03-17T00:06:00.198Z,1.68
2023-03-17T00:08:31.916Z,1.68
2023-03-17T00:11:00.874Z,1.66
2023-03-17T00:13:31.108Z,1.75
2023-03-17T00:16:22.344Z,1.75
2023-03-17T00:18:51.860Z,1.72
2023-03-17T00:21:28.985Z,1.76
2023-03-17T00:23:58.344Z,1.75
2023-03-17T00:26:27.003Z,1.86
2023-03-17T00:28:55.639Z,1.92
2023-03-17T00:31:29.804Z,2.06
2023-03-17T00:33:58.621Z,2.05
2023-03-17T00:36:29.684Z,2.09
2023-03-17T00:39:07.521Z,2.13
2023-03-17T00:41:35.440Z,2.23
2023-03-17T00:44:03.686Z,2.27
2023-03-17T00:46:36.291Z,2.25
2023-03-17T00:49:20.191Z,2.23
2023-03-17T00:51:48.956Z,2.33
2023-03-17T00:54:18.126Z,2.40
2023-03-17T00:56:46.534Z,2.41
2023-03-17T00:59:30.221Z,2.46
2023-03-17T01:01:58.515Z,2.45
2023-03-17T01:04:26.560Z,2.57
2023-03-17T01:06:54.861Z,2.61
2023-03-17T01:09:26.639Z,2.65
2023-03-17T01:11:55.875Z,2.66
2023-03-17T01:14:25.063Z,2.69
2023-03-17T01:16:53.664Z,2.60
2023-03-17T01:19:22.373Z,2.62
2023-03-17T01:21:50.515Z,2.65
2023-03-17T01:24:18.769Z,2.62
2023-03-17T01:26:47.029Z,2.59
2023-03-17T01:29:16.684Z,2.61
2023-03-17T01:31:46.412Z,2.66
2023-03-17T01:34:14.403Z,2.58
2023-03-17T01:36:43.483Z,2.54
2023-03-17T01:39:11.372Z,2.53
2023-03-17T01:41:40.418Z,2.38
2023-03-17T01:44:14.428Z,2.49
2023-03-17T01:46:42.197Z,2.47
2023-03-17T01:49:17.320Z,2.50
2023-03-17T01:52:01.718Z,2.44
2023-03-17T01:54:35.778Z,2.37
2023-03-17T01:57:18.886Z,2.27
2023-03-17T01:59:53.641Z,2.22
2023-03-17T02:02:31.082Z,2.28
2023-03-17T02:04:59.411Z,2.34
2023-03-17T02:07:28.459Z,2.21
2023-03-17T02:09:58.290Z,2.21
2023-03-17T02:12:29.264Z,2.22
2023-03-17T02:14:58.324Z,2.24
2023-03-17T02:17:29.224Z,2.28
2023-03-17T02:19:57.123Z,2.34
2023-03-17T02:22:25.372Z,2.33
2023-03-17T02:24:59.737Z,2.35
2023-03-17T02:27:35.031Z,2.40
2023-03-17T02:30:04.059Z,2.31
2023-03-17T02:32:36.409Z,2.33
2023-03-17T02:35:05.797Z,2.44
2023-03-17T02:37:34.107Z,2.49
2023-03-17T02:40:02.883Z,2.56
2023-03-17T02:42:30.802Z,2.62
2023-03-17T02:44:59.843Z,2.57
2023-03-17T02:47:27.895Z,2.45
2023-03-17T02:49:55.938Z,2.41
2023-03-17T02:52:23.929Z,2.38
2023-03-17T02:57:00.915Z,2.43
2023-03-17T02:59:28.844Z,2.44
2023-03-17T03:01:56.724Z,2.38
2023-03-17T03:04:24.864Z,2.45
2023-03-17T03:06:52.881Z,2.50
2023-03-17T03:09:21.694Z,2.53
2023-03-17T03:11:49.573Z,2.41
2023-03-17T03:14:17.589Z,2.55
2023-03-17T03:16:47.114Z,2.54
2023-03-17T03:19:15.028Z,2.52
2023-03-17T03:21:43.095Z,2.57
2023-03-17T03:24:11.263Z,2.59
2023-03-17T03:26:39.204Z,2.69
2023-03-17T03:29:07.141Z,2.65
2023-03-17T03:31:35.427Z,2.73
2023-03-17T03:34:03.502Z,2.76
2023-03-17T03:36:32.532Z,2.76
2023-03-17T03:39:01.427Z,2.77
2023-03-17T03:41:29.588Z,2.77
2023-03-17T03:43:57.493Z,2.75
2023-03-17T03:46:26.849Z,2.73
2023-03-17T03:48:54.862Z,2.77
2023-03-17T03:51:23.044Z,2.75
2023-03-17T03:53:50.879Z,2.68
2023-03-17T03:56:18.878Z,2.71
2023-03-17T03:58:47.225Z,2.71
2023-03-17T04:01:17.541Z,2.59
2023-03-17T04:03:47.523Z,2.64
2023-03-17T04:06:16.441Z,2.68
2023-03-17T04:08:44.203Z,2.79
2023-03-17T04:11:12.200Z,2.75
2023-03-17T04:13:40.204Z,2.85
2023-03-17T04:16:08.647Z,2.84
2023-03-17T04:18:36.615Z,2.84
2023-03-17T04:21:06.677Z,2.72
2023-03-17T04:23:34.794Z,2.69
2023-03-17T04:26:04.352Z,2.62
2023-03-17T04:28:34.373Z,2.53
2023-03-17T04:31:02.515Z,2.51
2023-03-17T04:33:30.587Z,2.36
2023-03-17T04:35:58.806Z,2.45
2023-03-17T04:38:26.940Z,2.48
2023-03-17T04:41:00.929Z,2.48
2023-03-17T04:43:29.144Z,2.49
2023-03-17T04:45:57.162Z,2.41
2023-03-17T04:48:25.211Z,2.51
2023-03-17T04:50:53.365Z,2.48
2023-03-17T04:53:21.318Z,2.54
2023-03-17T04:55:49.326Z,2.56
2023-03-17T04:58:29.966Z,2.59
2023-03-17T05:00:59.683Z,2.65
2023-03-17T05:03:28.631Z,2.69
2023-03-17T05:06:00.040Z,2.67
2023-03-17T05:08:28.684Z,2.78
2023-03-17T05:10:57.584Z,2.81
2023-03-17T05:13:27.433Z,2.78
2023-03-17T05:15:56.472Z,2.76
2023-03-17T05:18:25.808Z,2.77
2023-03-17T05:20:54.704Z,2.71
2023-03-17T05:23:23.340Z,2.77
2023-03-17T05:25:51.472Z,2.72
2023-03-17T05:28:21.230Z,2.71
2023-03-17T05:30:49.760Z,2.84
2023-03-17T05:33:17.905Z,2.89
2023-03-17T05:35:46.811Z,2.92
2023-03-17T05:38:16.315Z,3.00
2023-03-17T05:40:44.939Z,2.93
2023-03-17T05:43:14.230Z,3.05
2023-03-17T05:45:42.609Z,3.07
2023-03-17T05:48:12.539Z,3.11
2023-03-17T05:50:41.917Z,3.10
2023-03-17T05:53:10.035Z,3.12
2023-03-17T05:55:38.096Z,3.14
2023-03-17T05:58:06.754Z,2.99
2023-03-17T06:00:35.851Z,3.09
2023-03-17T06:03:05.114Z,3.18
2023-03-17T06:05:33.267Z,3.23
2023-03-17T06:08:02.245Z,3.11
2023-03-17T06:10:30.519Z,3.11
2023-03-17T06:12:59.256Z,3.26
2023-03-17T06:15:29.377Z,3.26
2023-03-17T06:17:57.564Z,3.26
2023-03-17T06:20:26.024Z,3.15
2023-03-17T06:23:04.019Z,3.20
2023-03-17T06:25:35.160Z,3.24
2023-03-17T06:28:05.778Z,3.15
2023-03-17T06:30:35.110Z,3.25
2023-03-17T06:33:04.088Z,3.36
2023-03-17T06:35:33.822Z,3.34
2023-03-17T06:38:03.733Z,3.41
2023-03-17T06:40:32.468Z,3.52
2023-03-17T06:43:01.493Z,3.54
2023-03-17T06:45:29.809Z,3.63
2023-03-17T06:47:58.053Z,3.72
2023-03-17T06:50:26.232Z,3.65
2023-03-17T06:52:54.371Z,3.63
2023-03-17T06:55:23.449Z,3.73
2023-03-17T06:57:51.562Z,3.73
2023-03-17T07:00:21.248Z,3.86
2023-03-17T07:02:49.908Z,4.00
2023-03-17T07:05:18.138Z,4.02
2023-03-17T07:07:46.542Z,4.08
2023-03-17T07:10:16.048Z,4.25
2023-03-17T07:12:44.960Z,4.48
2023-03-17T07:15:13.243Z,4.62
2023-03-17T07:17:47.059Z,4.62
2023-03-17T07:20:15.252Z,4.62
2023-03-17T07:22:43.170Z,4.66
2023-03-17T07:25:11.276Z,4.72
2023-03-17T07:27:39.662Z,4.80
2023-03-17T07:30:08.226Z,4.74
2023-03-17T07:32:36.547Z,4.69
2023-03-17T07:35:05.528Z,4.91
2023-03-17T07:37:33.623Z,4.94
2023-03-17T07:40:01.800Z,5.08
2023-03-17T07:42:30.362Z,5.02
2023-03-17T07:44:58.605Z,5.02
2023-03-17T07:47:26.548Z,5.08
2023-03-17T07:49:55.178Z,5.19
2023-03-17T07:52:23.296Z,5.29
2023-03-17T07:54:52.357Z,5.31
2023-03-17T07:57:20.273Z,5.45
2023-03-17T07:59:48.247Z,5.51
2023-03-17T08:02:17.804Z,5.60
2023-03-17T08:04:46.273Z,5.71
2023-03-17T08:07:15.891Z,5.39
2023-03-17T08:09:44.331Z,5.67
2023-03-17T08:12:12.458Z,5.68
2023-03-17T08:14:41.642Z,5.59
2023-03-17T08:17:09.699Z,5.96
2023-03-17T08:19:38.431Z,5.99
2023-03-17T08:22:06.944Z,6.00
2023-03-17T08:24:35.705Z,5.99
2023-03-17T08:27:04.281Z,6.00
2023-03-17T08:29:32.342Z,6.01
2023-03-17T08:32:00.205Z,5.97
2023-03-17T08:34:28.191Z,6.04
2023-03-17T08:36:56.928Z,6.09
2023-03-17T08:39:25.500Z,6.09
2023-03-17T08:41:53.914Z,6.23
2023-03-17T08:44:22.131Z,6.37
2023-03-17T08:46:51.658Z,6.30
2023-03-17T08:49:19.756Z,6.45
2023-03-17T08:51:47.724Z,6.46
2023-03-17T08:54:16.159Z,6.39
2023-03-17T08:56:44.161Z,6.54
2023-03-17T08:59:12.708Z,6.39
2023-03-17T09:01:40.616Z,6.30
2023-03-17T09:04:09.159Z,6.40
2023-03-17T09:06:38.817Z,6.48
2023-03-17T09:09:07.944Z,6.56
2023-03-17T09:11:38.099Z,6.74
2023-03-17T09:14:06.077Z,6.81
2023-03-17T09:16:34.514Z,7.03
2023-03-17T09:19:04.051Z,7.03
2023-03-17T09:21:32.245Z,7.05
2023-03-17T09:24:02.407Z,7.01
2023-03-17T09:26:30.980Z,7.15
2023-03-17T09:28:59.460Z,7.24
2023-03-17T09:31:27.494Z,7.18
2023-03-17T09:33:55.515Z,7.28
2023-03-17T09:36:24.419Z,7.06
2023-03-17T09:38:52.681Z,7.29
2023-03-17T09:41:43.514Z,7.30
2023-03-17T09:44:23.738Z,7.51
2023-03-17T09:47:01.115Z,7.44
2023-03-17T09:49:37.345Z,7.48
2023-03-17T09:52:05.649Z,7.57
2023-03-17T09:54:38.070Z,7.44
2023-03-17T09:57:18.329Z,7.29
2023-03-17T09:59:50.996Z,7.50
2023-03-17T10:02:32.859Z,7.43
2023-03-17T10:05:20.774Z,7.62
2023-03-17T10:08:28.923Z,7.41
2023-03-17T10:11:04.984Z,7.41
2023-03-17T10:13:44.534Z,7.34
2023-03-17T10:16:14.856Z,7.41
2023-03-17T10:19:02.967Z,7.64
2023-03-17T10:21:35.313Z,7.53
2023-03-17T10:24:05.634Z,7.56
2023-03-17T10:27:07.250Z,7.63
2023-03-17T10:29:35.337Z,7.73
2023-03-17T10:32:04.523Z,7.50
2023-03-17T10:34:34.289Z,7.49
2023-03-17T10:37:21.456Z,7.11
2023-03-17T10:39:56.508Z,7.40
2023-03-17T10:42:30.575Z,7.68
2023-03-17T10:45:13.977Z,7.72
2023-03-17T10:47:47.425Z,7.82
2023-03-17T10:50:15.762Z,7.71
2023-03-17T10:52:46.900Z,7.78
2023-03-17T10:55:21.643Z,7.73
2023-03-17T10:58:02.558Z,7.85
2023-03-17T11:00:35.498Z,7.91
2023-03-17T11:03:16.922Z,7.89
2023-03-17T11:05:55.416Z,8.18
2023-03-17T11:08:23.785Z,7.84
2023-03-17T11:10:57.174Z,8.07
2023-03-17T11:13:30.832Z,8.34
2023-03-17T11:16:22.462Z,7.94
2023-03-17T11:18:55.739Z,8.11
2023-03-17T11:21:32.724Z,8.08
2023-03-17T11:24:16.271Z,8.40
2023-03-17T11:27:01.454Z,8.52
2023-03-17T11:29:44.429Z,8.77
2023-03-17T11:32:33.932Z,8.98
2023-03-17T11:35:08.586Z,9.04
2023-03-17T11:38:01.275Z,8.96
2023-03-17T11:40:52.182Z,8.49
2023-03-17T11:43:58.024Z,8.89
2023-03-17T11:46:33.444Z,9.12
2023-03-17T11:49:10.174Z,9.19
2023-03-17T11:52:11.456Z,9.71
2023-03-17T11:54:58.994Z,9.84
2023-03-17T11:57:39.408Z,10.19
2023-03-17T12:00:34.157Z,10.34
2023-03-17T12:03:18.098Z,10.50
2023-03-17T12:05:54.904Z,10.29
2023-03-17T12:08:57.932Z,9.97
2023-03-17T12:11:30.020Z,10.08
2023-03-17T12:14:22.261Z,10.23
2023-03-17T12:17:02.641Z,10.32
2023-03-17T12:19:57.422Z,9.81
2023-03-17T12:22:33.960Z,10.08
2023-03-17T12:25:20.993Z,10.03
2023-03-17T12:27:53.515Z,10.19
2023-03-17T12:30:33.397Z,9.82
2023-03-17T12:33:16.191Z,9.48
2023-03-17T12:35:44.875Z,9.59
2023-03-17T12:38:20.082Z,9.86
2023-03-17T12:40:54.210Z,9.53
2023-03-17T12:43:34.196Z,9.33
2023-03-17T12:46:17.283Z,9.06
2023-03-17T12:48:51.109Z,9.27
2023-03-17T12:51:22.323Z,8.99
2023-03-17T12:53:52.224Z,8.74
2023-03-17T12:56:28.142Z,9.25
2023-03-17T12:59:22.377Z,9.31
2023-03-17T13:01:59.083Z,9.13
2023-03-17T13:04:33.163Z,9.66
2023-03-17T13:07:10.938Z,10.05
2023-03-17T13:09:51.085Z,10.21
2023-03-17T13:12:40.611Z,10.45
2023-03-17T13:15:48.733Z,10.87
2023-03-17T13:18:16.909Z,10.55
2023-03-17T13:20:51.670Z,10.32
2023-03-17T13:23:24.174Z,9.99
2023-03-17T13:25:54.078Z,9.87
2023-03-17T13:28:47.873Z,9.59
2023-03-17T13:31:28.602Z,9.47
2023-03-17T13:34:02.958Z,9.17
2023-03-17T13:36:37.379Z,8.78
2023-03-17T13:39:43.221Z,8.54
2023-03-17T13:42:38.420Z,8.73
2023-03-17T13:45:44.805Z,8.54
2023-03-17T13:48:33.268Z,8.39
2023-03-17T13:51:15.096Z,8.48
2023-03-17T13:53:51.219Z,8.35
2023-03-17T13:56:22.034Z,8.08
2023-03-17T13:59:02.594Z,7.73
2023-03-17T14:01:41.715Z,7.81
2023-03-17T14:04:29.309Z,7.93
2023-03-17T14:07:05.639Z,7.91
2023-03-17T14:09:36.042Z,7.73
2023-03-17T14:12:43.659Z,7.54
2023-03-17T14:15:25.631Z,7.47
2023-03-17T14:18:22.217Z,7.26
2023-03-17T14:20:55.923Z,7.13
2023-03-17T14:23:24.778Z,6.90
2023-03-17T14:25:56.301Z,6.85
2023-03-17T14:28:28.653Z,6.62
2023-03-17T14:31:03.788Z,6.87
2023-03-17T14:33:38.697Z,6.88
2023-03-17T14:36:11.217Z,6.65
2023-03-17T14:38:51.420Z,6.31
2023-03-17T14:41:26.664Z,6.63
2023-03-17T14:43:59.898Z,6.80
2023-03-17T14:46:41.565Z,6.94
2023-03-17T14:49:18.030Z,7.07
2023-03-17T14:51:50.557Z,6.89
2023-03-17T14:54:32.735Z,6.91
2023-03-17T14:57:09.550Z,6.92
2023-03-17T14:59:41.402Z,6.84
2023-03-17T15:02:23.584Z,6.99
2023-03-17T15:04:58.700Z,6.74
2023-03-17T15:07:40.189Z,6.62
2023-03-17T15:10:22.607Z,6.66
2023-03-17T15:13:01.196Z,6.50
2023-03-17T15:15:33.565Z,6.58
2023-03-17T15:18:12.325Z,6.59
2023-03-17T15:20:43.996Z,6.32
2023-03-17T15:23:20.409Z,6.23
2023-03-17T15:25:56.190Z,6.20
2023-03-17T15:28:31.783Z,6.22
2023-03-17T15:31:13.092Z,6.19
2023-03-17T15:33:43.050Z,6.14
2023-03-17T15:36:31.456Z,6.13
2023-03-17T15:39:03.883Z,5.91
2023-03-17T15:41:32.482Z,5.96
2023-03-17T15:44:00.816Z,5.96
2023-03-17T15:46:31.992Z,5.82
2023-03-17T15:49:00.771Z,5.74
2023-03-17T15:51:29.146Z,5.62
2023-03-17T15:53:57.902Z,5.56
2023-03-17T15:56:26.738Z,5.35
2023-03-17T15:58:56.445Z,5.31
2023-03-17T16:01:27.780Z,5.24
2023-03-17T16:03:56.657Z,4.83
2023-03-17T16:06:25.645Z,5.28
2023-03-17T16:08:54.039Z,5.18
2023-03-17T16:11:28.980Z,5.26
2023-03-17T16:14:02.674Z,5.26
2023-03-17T16:16:38.188Z,5.18
2023-03-17T16:19:10.495Z,5.15
2023-03-17T16:21:44.195Z,5.10
2023-03-17T16:24:22.029Z,5.11
2023-03-17T16:26:52.350Z,5.05
2023-03-17T16:29:22.039Z,4.92
2023-03-17T16:31:51.536Z,5.00
2023-03-17T16:34:24.035Z,5.06
2023-03-17T16:36:54.572Z,4.94
2023-03-17T16:39:24.038Z,5.00
2023-03-17T16:41:53.941Z,4.90
2023-03-17T16:44:23.839Z,4.85
2023-03-17T16:46:52.729Z,4.69
2023-03-17T16:49:25.470Z,4.48
2023-03-17T16:51:54.139Z,4.47
2023-03-17T16:54:22.444Z,4.41
2023-03-17T16:56:51.429Z,4.27
2023-03-17T16:59:22.326Z,4.27
2023-03-17T17:01:51.433Z,4.16
2023-03-17T17:12:27.635Z,3.81
2023-03-17T17:23:23.396Z,3.43
2023-03-17T17:34:03.714Z,3.15
2023-03-17T17:47:24.835Z,3.01
2023-03-17T17:50:03.870Z,2.97
2023-03-17T17:57:58.584Z,2.73
2023-03-17T18:27:44.436Z,2.09
2023-03-17T18:52:13.401Z,1.89
2023-03-17T19:08:23.076Z,1.69
2023-03-17T19:21:42.220Z,1.44
2023-03-17T19:35:02.052Z,1.50
2023-03-17T20:07:19.009Z,1.12
2023-03-17T20:23:30.211Z,0.85
2023-03-17T21:03:58.381Z,0.16
2023-03-17T21:06:30.132Z,0.27
2023-03-17T21:14:29.257Z,0.26
2023-03-17T21:36:03.689Z,0.38
2023-03-17T21:38:32.618Z,0.30
2023-03-17T21:41:38.069Z,0.33
2023-03-17T21:44:08.770Z,0.32
2023-03-17T21:46:37.429Z,0.19
2023-03-17T21:49:05.960Z,0.15
2023-03-17T21:51:35.228Z,0.17
2023-03-17T21:54:04.214Z,0.17
2023-03-17T21:56:32.678Z,0.22
2023-03-17T21:59:01.249Z,0.37
2023-03-17T22:01:29.542Z,0.37
2023-03-17T22:03:57.915Z,0.33
2023-03-17T22:06:27.788Z,0.29
2023-03-17T22:08:56.083Z,0.01
2023-03-17T22:11:24.165Z,0.09
2023-03-17T22:13:52.524Z,0.06
2023-03-17T22:16:21.765Z,-0.10
2023-03-17T22:18:49.712Z,-0.31
2023-03-17T22:21:18.280Z,-0.39
2023-03-17T22:23:46.538Z,-0.75
2023-03-17T22:26:17.535Z,-1.00
2023-03-17T22:28:48.784Z,-0.82
2023-03-17T22:31:20.872Z,-0.65
2023-03-17T22:33:50.664Z,-0.54
2023-03-17T22:36:19.249Z,-0.57
2023-03-17T22:38:47.733Z,-0.68
2023-03-17T22:41:21.851Z,-0.83
2023-03-17T22:43:50.904Z,-0.75
2023-03-17T22:46:19.888Z,-0.63
2023-03-17T22:48:48.153Z,-0.57
2023-03-17T22:51:21.677Z,-0.44
2023-03-17T22:53:51.095Z,-0.47
2023-03-17T22:56:19.972Z,-0.37
2023-03-17T22:58:48.201Z,-0.28
2023-03-17T23:01:18.171Z,-0.23
2023-03-17T23:03:46.491Z,-0.28
2023-03-17T23:06:14.969Z,-0.33
2023-03-17T23:08:44.340Z,-0.43
2023-03-17T23:11:18.628Z,-0.52
2023-03-17T23:13:47.847Z,-0.51
2023-03-17T23:16:16.498Z,-0.47
2023-03-17T23:18:46.749Z,-0.55
2023-03-17T23:21:22.065Z,-0.38
2023-03-17T23:23:50.367Z,-0.34
2023-03-17T23:26:18.656Z,-0.42
2023-03-17T23:28:46.712Z,-0.42
2023-03-17T23:31:16.931Z,-0.47
2023-03-17T23:33:47.031Z,-0.44
2023-03-17T23:36:17.264Z,-0.58
2023-03-17T23:38:46.329Z,-0.60
2023-03-17T23:41:15.519Z,-0.60
2023-03-17T23:43:44.263Z,-0.58
2023-03-17T23:46:13.696Z,-0.63
2023-03-17T23:48:43.077Z,-0.75
2023-03-17T23:51:12.639Z,-0.75
2023-03-17T23:53:41.965Z,-0.83
2023-03-17T23:56:11.637Z,-0.87
2023-03-17T23:58:43.653Z,-0.83
